createdAt,value
2022-08-30T00:00:41.923Z,45.1904296875
2022-08-30T00:01:42.276Z,45.3037109375
2022-08-30T00:02:42.044Z,45.4033203125
2022-08-30T00:03:41.934Z,45.4599609375
2022-08-30T00:04:41.950Z,45.6162109375
2022-08-30T00:05:42.242Z,45.6279296875
2022-08-30T00:06:42.305Z,45.6484375
2022-08-30T00:07:45.001Z,45.63671875
2022-08-30T00:08:42.005Z,45.6806640625
2022-08-30T00:09:41.911Z,46.1279296875
2022-08-30T00:10:42.014Z,45.8984375
2022-08-30T00:11:42.389Z,45.830078125
2022-08-30T00:12:41.955Z,45.81640625
2022-08-30T00:13:41.840Z,45.6826171875
2022-08-30T00:14:43.363Z,45.7822265625
2022-08-30T00:15:42.045Z,45.701171875
2022-08-30T00:16:42.283Z,45.8271484375
2022-08-30T00:17:41.997Z,46.0087890625
2022-08-30T00:18:44.910Z,46.3388671875
2022-08-30T00:19:42.019Z,46.1689453125
2022-08-30T00:20:42.271Z,46.181640625
2022-08-30T00:21:42.381Z,46.236328125
2022-08-30T00:22:42.057Z,46.3505859375
2022-08-30T00:23:42.049Z,46.55078125
2022-08-30T00:24:41.975Z,46.662109375
2022-08-30T00:25:41.848Z,46.8671875
2022-08-30T00:26:42.441Z,46.537109375
2022-08-30T00:27:42.067Z,46.59375
2022-08-30T00:28:42.060Z,46.685546875
2022-08-30T00:29:44.958Z,46.7646484375
2022-08-30T00:30:42.098Z,47.0693359375
2022-08-30T00:31:42.324Z,47.087890625
2022-08-30T00:32:42.039Z,47.4326171875
2022-08-30T00:33:42.057Z,47.1376953125
2022-08-30T00:34:42.013Z,47.275390625
2022-08-30T00:35:42.203Z,47.11328125
2022-08-30T00:36:42.272Z,47.05859375
2022-08-30T00:37:42.041Z,47.0595703125
2022-08-30T00:38:41.977Z,47.0595703125
2022-08-30T00:39:41.945Z,47.1611328125
2022-08-30T00:40:45.016Z,47.125
2022-08-30T00:41:42.231Z,47.26171875
2022-08-30T00:42:42.052Z,47.125
2022-08-30T00:43:41.988Z,47.21875
2022-08-30T00:44:41.905Z,47.310546875
2022-08-30T00:45:41.937Z,47.2646484375
2022-08-30T00:46:42.316Z,47.416015625
2022-08-30T00:47:41.923Z,47.4931640625
2022-08-30T00:48:42.017Z,47.5009765625
2022-08-30T00:49:41.949Z,48.0205078125
2022-08-30T00:50:42.198Z,48.0078125
2022-08-30T00:51:47.960Z,47.99609375
2022-08-30T00:52:42.019Z,48.1533203125
2022-08-30T00:53:41.932Z,48.5390625
2022-08-30T00:54:41.997Z,48.4814453125
2022-08-30T00:55:42.141Z,48.4453125
2022-08-30T00:56:42.250Z,48.6142578125
2022-08-30T00:57:41.957Z,48.865234375
2022-08-30T00:58:41.861Z,48.8876953125
2022-08-30T00:59:41.982Z,48.8515625
2022-08-30T01:00:42.027Z,48.87109375
2022-08-30T01:01:42.298Z,48.9384765625
2022-08-30T01:02:45.088Z,49.154296875
2022-08-30T01:03:42.051Z,48.9619140625
2022-08-30T01:04:41.950Z,48.90234375
2022-08-30T01:05:42.276Z,49.119140625
2022-08-30T01:06:42.206Z,49.15234375
2022-08-30T01:07:42.047Z,49.3779296875
2022-08-30T01:08:41.932Z,49.3876953125
2022-08-30T01:09:41.977Z,49.173828125
2022-08-30T01:10:42.040Z,49.279296875
2022-08-30T01:11:42.272Z,49.1669921875
2022-08-30T01:12:42.060Z,48.8173828125
2022-08-30T01:13:44.949Z,48.6474609375
2022-08-30T01:14:42.025Z,48.787109375
2022-08-30T01:15:42.041Z,48.732421875
2022-08-30T01:16:42.442Z,48.732421875
2022-08-30T01:17:42.032Z,48.77734375
2022-08-30T01:18:41.990Z,48.6982421875
2022-08-30T01:19:41.946Z,48.42578125
2022-08-30T01:20:42.274Z,48.359375
2022-08-30T01:21:42.223Z,48.5654296875
2022-08-30T01:22:42.007Z,48.6982421875
2022-08-30T01:23:41.985Z,48.7412109375
2022-08-30T01:24:45.006Z,49.216796875
2022-08-30T01:25:41.951Z,49.5224609375
2022-08-30T01:26:42.328Z,49.3046875
2022-08-30T01:27:41.988Z,49.4423828125
2022-08-30T01:28:41.989Z,49.4541015625
2022-08-30T01:29:42.012Z,49.6435546875
2022-08-30T01:30:42.066Z,49.6396484375
2022-08-30T01:31:42.279Z,49.9453125
2022-08-30T01:32:42.032Z,49.8857421875
2022-08-30T01:33:41.928Z,50.0771484375
2022-08-30T01:34:41.940Z,50.2021484375
2022-08-30T01:35:47.972Z,50.302734375
2022-08-30T01:36:44.759Z,50.6494140625
2022-08-30T01:37:42.048Z,50.818359375
2022-08-30T01:38:42.028Z,50.9560546875
2022-08-30T01:39:41.848Z,51.046875
2022-08-30T01:40:41.994Z,51.03125
2022-08-30T01:41:42.201Z,51.12109375
2022-08-30T01:42:41.859Z,51.337890625
2022-08-30T01:43:41.973Z,51.0205078125
2022-08-30T01:44:41.991Z,51.068359375
2022-08-30T01:45:42.088Z,51.1455078125
2022-08-30T01:46:47.964Z,51.244140625
2022-08-30T01:47:41.913Z,51.423828125
2022-08-30T01:48:41.979Z,51.560546875
2022-08-30T01:49:42.020Z,51.3212890625
2022-08-30T01:50:42.366Z,51.52734375
2022-08-30T01:51:42.207Z,51.626953125
2022-08-30T01:52:41.984Z,51.66796875
2022-08-30T01:53:41.846Z,51.775390625
2022-08-30T01:54:41.974Z,51.705078125
2022-08-30T01:55:41.936Z,51.849609375
2022-08-30T01:56:43.063Z,51.8369140625
2022-08-30T01:57:45.015Z,51.849609375
2022-08-30T01:58:41.975Z,51.8173828125
2022-08-30T01:59:41.860Z,51.78515625
2022-08-30T02:00:41.994Z,51.849609375
2022-08-30T02:01:42.067Z,52.0439453125
2022-08-30T02:02:42.345Z,52.28125
2022-08-30T02:03:42.018Z,52.1572265625
2022-08-30T02:04:41.952Z,52.0791015625
2022-08-30T02:05:42.316Z,52.2353515625
2022-08-30T02:06:42.208Z,52.5322265625
2022-08-30T02:07:41.934Z,52.44140625
2022-08-30T02:08:44.898Z,52.5771484375
2022-08-30T02:09:42.023Z,52.701171875
2022-08-30T02:10:41.948Z,52.708984375
2022-08-30T02:11:42.297Z,52.90234375
2022-08-30T02:12:42.061Z,53.056640625
2022-08-30T02:13:41.970Z,53.1904296875
2022-08-30T02:14:41.934Z,53.1767578125
2022-08-30T02:15:42.077Z,53.3017578125
2022-08-30T02:16:42.249Z,53.4013671875
2022-08-30T02:17:42.024Z,53.3466796875
2022-08-30T02:18:41.937Z,53.5419921875
2022-08-30T02:19:44.989Z,53.259765625
2022-08-30T02:20:42.284Z,53.3154296875
2022-08-30T02:21:42.325Z,53.5068359375
2022-08-30T02:22:48.139Z,53.5283203125
2022-08-30T02:23:41.932Z,53.548828125
2022-08-30T02:24:41.937Z,53.3564453125
2022-08-30T02:25:41.957Z,53.087890625
2022-08-30T02:26:42.359Z,53.1826171875
2022-08-30T02:27:42.077Z,53.228515625
2022-08-30T02:28:42.775Z,53.375
2022-08-30T02:29:41.985Z,53.599609375
2022-08-30T02:30:44.930Z,53.5068359375
2022-08-30T02:31:42.244Z,53.6005859375
2022-08-30T02:32:42.039Z,53.474609375
2022-08-30T02:33:41.930Z,53.4755859375
2022-08-30T02:34:42.013Z,53.4189453125
2022-08-30T02:35:42.311Z,53.4677734375
2022-08-30T02:36:42.198Z,53.388671875
2022-08-30T02:37:41.950Z,53.298828125
2022-08-30T02:38:42.044Z,53.0400390625
2022-08-30T02:39:42.038Z,53.2568359375
2022-08-30T02:40:42.076Z,53.416015625
2022-08-30T02:41:48.337Z,53.52734375
2022-08-30T02:42:42.033Z,53.5927734375
2022-08-30T02:43:41.974Z,53.6591796875
2022-08-30T02:44:41.897Z,53.8046875
2022-08-30T02:45:42.064Z,53.8486328125
2022-08-30T02:46:42.199Z,53.8603515625
2022-08-30T02:47:46.271Z,53.6689453125
2022-08-30T02:48:41.835Z,53.6357421875
2022-08-30T02:49:41.858Z,53.6728515625
2022-08-30T02:50:42.203Z,53.4931640625
2022-08-30T02:51:42.211Z,53.7548828125
2022-08-30T02:52:45.210Z,53.6748046875
2022-08-30T02:53:41.935Z,53.833984375
2022-08-30T02:54:41.952Z,53.8232421875
2022-08-30T02:55:41.847Z,53.9443359375
2022-08-30T02:56:42.280Z,54.1455078125
2022-08-30T02:57:42.042Z,54.5205078125
2022-08-30T02:58:44.938Z,54.365234375
2022-08-30T02:59:41.952Z,54.3544921875
2022-08-30T03:00:41.910Z,54.3505859375
2022-08-30T03:01:42.316Z,54.474609375
2022-08-30T03:02:41.988Z,54.6962890625
2022-08-30T03:03:41.919Z,54.98046875
2022-08-30T03:04:41.905Z,54.978515625
2022-08-30T03:05:42.275Z,54.9794921875
2022-08-30T03:06:42.293Z,54.990234375
2022-08-30T03:07:42.053Z,54.96875
2022-08-30T03:08:41.907Z,55.103515625
2022-08-30T03:09:45.073Z,55.1376953125
2022-08-30T03:10:42.037Z,55.3955078125
2022-08-30T03:11:42.288Z,55.58203125
2022-08-30T03:12:41.966Z,55.8173828125
2022-08-30T03:13:41.845Z,55.853515625
2022-08-30T03:14:41.935Z,55.8984375
2022-08-30T03:15:41.958Z,55.955078125
2022-08-30T03:16:42.371Z,56.021484375
2022-08-30T03:17:42.061Z,56.0009765625
2022-08-30T03:18:41.989Z,56.0478515625
2022-08-30T03:19:41.993Z,56.013671875
2022-08-30T03:20:54.194Z,56.0361328125
2022-08-30T03:21:42.204Z,55.9462890625
2022-08-30T03:22:42.020Z,56.0009765625
2022-08-30T03:23:41.897Z,56.146484375
2022-08-30T03:24:41.965Z,56.21484375
2022-08-30T03:25:41.985Z,56.2490234375
2022-08-30T03:26:46.176Z,56.28515625
2022-08-30T03:27:41.843Z,56.2841796875
2022-08-30T03:28:41.980Z,56.1943359375
2022-08-30T03:29:42.056Z,56.1611328125
2022-08-30T03:30:42.040Z,56.2275390625
2022-08-30T03:31:53.140Z,56.19140625
2022-08-30T03:32:42.031Z,56.4453125
2022-08-30T03:33:42.048Z,56.2392578125
2022-08-30T03:34:42.056Z,56.2744140625
2022-08-30T03:35:42.215Z,56.2490234375
2022-08-30T03:36:42.057Z,56.6298828125
2022-08-30T03:37:42.216Z,56.67578125
2022-08-30T03:38:41.954Z,56.484375
2022-08-30T03:39:42.059Z,56.5205078125
2022-08-30T03:40:42.086Z,56.509765625
2022-08-30T03:41:42.280Z,56.5888671875
2022-08-30T03:42:44.981Z,56.759765625
2022-08-30T03:43:41.949Z,56.857421875
2022-08-30T03:44:41.855Z,57.20703125
2022-08-30T03:45:41.900Z,57.1494140625
2022-08-30T03:46:42.276Z,57.169921875
2022-08-30T03:47:42.082Z,57.5166015625
2022-08-30T03:48:41.964Z,57.7333984375
2022-08-30T03:49:41.965Z,57.46875
2022-08-30T03:50:42.214Z,57.6279296875
2022-08-30T03:51:42.309Z,57.6181640625
2022-08-30T03:52:41.929Z,57.2333984375
2022-08-30T03:53:45.005Z,57.32421875
2022-08-30T03:54:42.057Z,57.5068359375
2022-08-30T03:55:42.063Z,57.4609375
2022-08-30T03:56:42.210Z,57.5595703125
2022-08-30T03:57:42.215Z,57.5576171875
2022-08-30T03:58:41.973Z,57.5029296875
2022-08-30T03:59:41.963Z,57.5830078125
2022-08-30T04:00:41.935Z,57.693359375
2022-08-30T04:01:41.997Z,57.5673828125
2022-08-30T04:02:42.317Z,57.474609375
2022-08-30T04:03:42.018Z,57.5625
2022-08-30T04:04:45.002Z,57.6728515625
2022-08-30T04:05:42.243Z,57.658203125
2022-08-30T04:06:42.253Z,57.76953125
2022-08-30T04:07:41.888Z,57.8359375
2022-08-30T04:08:41.963Z,57.8564453125
2022-08-30T04:09:41.961Z,58.0009765625
2022-08-30T04:10:41.978Z,58.146484375
2022-08-30T04:11:42.034Z,58.453125
2022-08-30T04:12:44.090Z,58.578125
2022-08-30T04:13:42.026Z,58.5771484375
2022-08-30T04:14:41.934Z,58.82421875
2022-08-30T04:15:41.938Z,58.9033203125
2022-08-30T04:16:42.433Z,58.880859375
2022-08-30T04:17:42.064Z,59.017578125
2022-08-30T04:18:41.939Z,59.0322265625
2022-08-30T04:19:41.958Z,59.1201171875
2022-08-30T04:20:47.918Z,59.17578125
2022-08-30T04:21:42.961Z,59.1181640625
2022-08-30T04:22:42.061Z,59.2294921875
2022-08-30T04:23:42.036Z,59.3544921875
2022-08-30T04:24:42.050Z,59.7197265625
2022-08-30T04:25:41.957Z,59.640625
2022-08-30T04:26:42.256Z,59.4384765625
2022-08-30T04:27:41.820Z,59.37109375
2022-08-30T04:28:41.958Z,59.3564453125
2022-08-30T04:29:42.011Z,59.29296875
2022-08-30T04:30:41.928Z,59.1259765625
2022-08-30T04:31:47.973Z,59.0224609375
2022-08-30T04:32:41.948Z,59.078125
2022-08-30T04:33:41.982Z,59.212890625
2022-08-30T04:34:42.002Z,59.2001953125
2022-08-30T04:35:42.288Z,59.4794921875
2022-08-30T04:36:42.211Z,59.4150390625
2022-08-30T04:37:41.843Z,59.396484375
2022-08-30T04:38:41.971Z,59.3369140625
2022-08-30T04:39:42.040Z,59.4169921875
2022-08-30T04:40:41.995Z,59.396484375
2022-08-30T04:41:42.052Z,59.2763671875
2022-08-30T04:42:47.988Z,59.1884765625
2022-08-30T04:43:41.977Z,59.26953125
2022-08-30T04:44:41.850Z,59.13671875
2022-08-30T04:45:41.924Z,59.189453125
2022-08-30T04:46:44.777Z,59.0810546875
2022-08-30T04:47:41.851Z,59.2470703125
2022-08-30T04:48:41.919Z,59.4375
2022-08-30T04:49:41.870Z,59.4970703125
2022-08-30T04:50:42.205Z,59.4072265625
2022-08-30T04:51:42.205Z,59.130859375
2022-08-30T04:52:42.051Z,59.01171875
2022-08-30T04:53:44.988Z,58.8310546875
2022-08-30T04:54:42.024Z,58.966796875
2022-08-30T04:55:41.938Z,59.0244140625
2022-08-30T04:56:42.275Z,59.046875
2022-08-30T04:57:41.930Z,59.2900390625
2022-08-30T04:58:42.072Z,59.087890625
2022-08-30T04:59:41.843Z,59.2333984375
2022-08-30T05:00:42.073Z,59.1201171875
2022-08-30T05:01:45.483Z,59.0634765625
2022-08-30T05:02:42.126Z,59.1015625
2022-08-30T05:03:42.992Z,58.95703125
2022-08-30T05:04:44.883Z,58.8798828125
2022-08-30T05:05:42.046Z,58.5185546875
2022-08-30T05:06:42.395Z,58.4912109375
2022-08-30T05:07:41.966Z,58.59375
2022-08-30T05:08:46.726Z,58.6630859375
2022-08-30T05:09:42.054Z,58.5283203125
2022-08-30T05:10:41.971Z,58.6435546875
2022-08-30T05:11:42.276Z,58.748046875
2022-08-30T05:12:42.052Z,58.28125
2022-08-30T05:13:42.031Z,58.501953125
2022-08-30T05:14:42.011Z,58.3330078125
2022-08-30T05:15:44.939Z,58.2421875
2022-08-30T05:16:42.301Z,57.892578125
2022-08-30T05:17:42.062Z,57.8857421875
2022-08-30T05:18:41.953Z,57.5615234375
2022-08-30T05:19:41.847Z,57.4072265625
2022-08-30T05:20:42.374Z,57.2978515625
2022-08-30T05:21:42.331Z,57.373046875
2022-08-30T05:22:41.853Z,57.302734375
2022-08-30T05:23:41.986Z,57.529296875
2022-08-30T05:24:41.927Z,57.3486328125
2022-08-30T05:25:41.831Z,57.578125
2022-08-30T05:27:56.916Z,57.474609375
2022-08-30T05:28:57.216Z,57.423828125
2022-08-30T05:29:57.057Z,57.3232421875
2022-08-30T05:30:57.053Z,57.24609375
2022-08-30T05:31:57.215Z,57.0859375
2022-08-30T05:33:00.037Z,57.0341796875
2022-08-30T05:33:57.055Z,56.8779296875
2022-08-30T05:34:57.033Z,56.9013671875
2022-08-30T05:35:57.209Z,56.966796875
2022-08-30T05:36:57.079Z,56.8564453125
2022-08-30T05:37:56.953Z,56.6630859375
2022-08-30T05:38:56.893Z,56.6748046875
2022-08-30T05:39:56.927Z,56.6865234375
2022-08-30T05:40:56.821Z,56.80859375
2022-08-30T05:41:57.296Z,56.93359375
2022-08-30T05:42:57.019Z,56.966796875
2022-08-30T05:44:00.044Z,56.9248046875
2022-08-30T05:44:56.961Z,56.8916015625
2022-08-30T05:45:56.837Z,56.7255859375
2022-08-30T05:46:57.198Z,56.6611328125
2022-08-30T05:47:56.965Z,56.392578125
2022-08-30T05:48:57.030Z,56.3603515625
2022-08-30T05:49:56.952Z,56.45703125
2022-08-30T05:50:57.272Z,56.1640625
2022-08-30T05:51:57.203Z,56.19140625
2022-08-30T05:52:57.050Z,56.1748046875
2022-08-30T05:53:56.966Z,55.8193359375
2022-08-30T05:55:00.066Z,55.6435546875
2022-08-30T05:55:56.918Z,55.181640625
2022-08-30T05:56:56.928Z,55.125
2022-08-30T05:57:57.036Z,55.126953125
2022-08-30T05:58:57.011Z,55.0322265625
2022-08-30T05:59:56.951Z,54.1826171875
2022-08-30T06:00:56.970Z,52.23046875
2022-08-30T06:01:57.376Z,48.0205078125
2022-08-30T06:02:57.206Z,45.08203125
2022-08-30T06:04:01.626Z,42.6640625
2022-08-30T06:04:57.038Z,39.83984375
2022-08-30T06:06:02.967Z,38.197265625
2022-08-30T06:06:56.954Z,36.1376953125
2022-08-30T06:07:56.973Z,35.1806640625
2022-08-30T06:08:57.010Z,34.623046875
2022-08-30T06:09:56.877Z,33.70703125
2022-08-30T06:10:56.850Z,31.2275390625
2022-08-30T06:11:57.203Z,30.6572265625
2022-08-30T06:12:56.922Z,29.0078125
2022-08-30T06:13:56.980Z,28.3544921875
2022-08-30T06:14:57.017Z,26.810546875
2022-08-30T06:15:56.968Z,26.7373046875
2022-08-30T06:17:00.378Z,27.2802734375
2022-08-30T06:17:57.013Z,26.9013671875
2022-08-30T06:18:56.958Z,25.4541015625
2022-08-30T06:19:56.827Z,24.6162109375
2022-08-30T06:20:57.275Z,25.4990234375
2022-08-30T06:21:57.197Z,25.736328125
2022-08-30T06:22:56.926Z,24.6318359375
2022-08-30T06:23:56.975Z,24.1552734375
2022-08-30T06:24:58.069Z,24.1318359375
2022-08-30T06:25:56.953Z,24.3935546875
2022-08-30T06:26:57.270Z,24.8466796875
2022-08-30T06:28:00.025Z,23.978515625
2022-08-30T06:28:57.048Z,24.5673828125
2022-08-30T06:29:57.060Z,24.9248046875
2022-08-30T06:30:57.083Z,24.9033203125
2022-08-30T06:31:57.201Z,25.1552734375
2022-08-30T06:32:57.018Z,24.51171875
2022-08-30T06:33:56.985Z,23.712890625
2022-08-30T06:34:56.969Z,23.0927734375
2022-08-30T06:35:58.813Z,21.62109375
2022-08-30T06:36:57.050Z,20.4560546875
2022-08-30T06:37:57.047Z,21.0498046875
2022-08-30T06:39:00.007Z,20.57421875
2022-08-30T06:39:56.971Z,19.83984375
2022-08-30T06:40:56.811Z,19.091796875
2022-08-30T06:41:57.272Z,19.22265625
2022-08-30T06:42:57.013Z,21.6396484375
2022-08-30T06:43:56.926Z,21.77734375
2022-08-30T06:44:56.988Z,22.6923828125
2022-08-30T06:45:56.976Z,23.8505859375
2022-08-30T06:46:57.283Z,23.40625
2022-08-30T06:49:05.066Z,19.091796875
2022-08-30T06:50:05.043Z,18.4501953125
2022-08-30T06:51:05.450Z,18.4033203125
2022-08-30T06:52:05.325Z,18.294921875
2022-08-30T06:53:05.088Z,18.328125
2022-08-30T06:54:09.243Z,19.4716796875
2022-08-30T06:55:05.164Z,19.4033203125
2022-08-30T06:56:05.042Z,19.4462890625
2022-08-30T06:57:05.393Z,20.2275390625
2022-08-30T06:58:05.081Z,19.6611328125
2022-08-30T06:59:05.098Z,21.8916015625
2022-08-30T07:00:05.082Z,21.5029296875
2022-08-30T07:01:05.099Z,19.8857421875
2022-08-30T07:02:05.257Z,19.546875
2022-08-30T07:03:05.232Z,19.9462890625
2022-08-30T07:04:05.150Z,18.8408203125
2022-08-30T07:05:08.001Z,18.1982421875
2022-08-30T07:06:05.329Z,16.9384765625
2022-08-30T07:07:05.335Z,16.1201171875
2022-08-30T07:08:05.135Z,15.0986328125
2022-08-30T07:09:05.116Z,15.00390625
2022-08-30T07:10:05.192Z,14.4990234375
2022-08-30T07:11:05.062Z,14.263671875
2022-08-30T07:12:05.441Z,14.2275390625
2022-08-30T07:13:05.052Z,13.7001953125
2022-08-30T07:14:05.104Z,13.9482421875
2022-08-30T07:15:05.177Z,14.5947265625
2022-08-30T07:16:08.195Z,15.23828125
2022-08-30T07:17:05.321Z,16.00390625
2022-08-30T07:18:04.991Z,18.0947265625
2022-08-30T07:19:05.105Z,18.8486328125
2022-08-30T07:20:05.142Z,19.388671875
2022-08-30T07:21:05.320Z,19.6005859375
2022-08-30T07:22:05.380Z,21.802734375
2022-08-30T07:23:05.111Z,22.251953125
2022-08-30T07:24:05.134Z,24.291015625
2022-08-30T07:25:05.070Z,25.80078125
2022-08-30T07:26:05.180Z,26.458984375
2022-08-30T07:27:11.076Z,26.345703125
2022-08-30T07:28:05.166Z,24.0517578125
2022-08-30T07:29:05.081Z,25.16796875
2022-08-30T07:30:05.065Z,26.1044921875
2022-08-30T07:31:05.151Z,25.642578125
2022-08-30T07:32:05.323Z,26.736328125
2022-08-30T07:33:05.073Z,27.1298828125
2022-08-30T07:34:05.070Z,26.74609375
2022-08-30T07:35:05.082Z,28.3623046875
2022-08-30T07:36:05.321Z,31.19140625
2022-08-30T07:37:05.332Z,33.2568359375
2022-08-30T07:38:05.050Z,34.87890625
2022-08-30T07:39:04.983Z,35.294921875
2022-08-30T07:40:05.030Z,35.673828125
2022-08-30T07:41:05.058Z,35.984375
2022-08-30T07:42:05.320Z,36.21875
2022-08-30T07:43:08.118Z,35.6201171875
2022-08-30T07:44:05.179Z,35.794921875
2022-08-30T07:45:05.122Z,35.8798828125
2022-08-30T07:46:05.167Z,34.875
2022-08-30T07:47:05.375Z,34.3603515625
2022-08-30T07:48:05.016Z,34.38671875
2022-08-30T07:49:05.036Z,34.7744140625
2022-08-30T07:50:04.963Z,35.73828125
2022-08-30T07:51:05.641Z,35.6923828125
2022-08-30T07:52:05.320Z,35.4775390625
2022-08-30T07:53:07.864Z,35.3017578125
2022-08-30T07:54:08.089Z,34.9052734375
2022-08-30T07:55:04.951Z,35.48046875
2022-08-30T07:56:05.044Z,36.087890625
2022-08-30T07:57:05.401Z,37.087890625
2022-08-30T07:58:05.186Z,37.4619140625
2022-08-30T07:59:04.983Z,37.017578125
2022-08-30T08:00:05.113Z,37.3525390625
2022-08-30T08:01:05.105Z,37.5166015625
2022-08-30T08:02:05.378Z,37.6787109375
2022-08-30T08:03:05.164Z,37.494140625
2022-08-30T08:04:05.079Z,37.654296875
2022-08-30T08:05:08.087Z,37.0380859375
2022-08-30T08:06:05.328Z,36.59765625
2022-08-30T08:07:05.348Z,36.4423828125
2022-08-30T08:08:05.054Z,36.279296875
2022-08-30T08:09:05.110Z,36.73046875
2022-08-30T08:10:05.128Z,36.65625
2022-08-30T08:11:04.967Z,36.71875
2022-08-30T08:12:05.394Z,36.7978515625
2022-08-30T08:13:05.070Z,37.0234375
2022-08-30T08:14:05.014Z,36.326171875
2022-08-30T08:15:08.218Z,35.8583984375
2022-08-30T08:16:08.220Z,35.8408203125
2022-08-30T08:17:05.322Z,36.0048828125
2022-08-30T08:18:05.123Z,35.501953125
2022-08-30T08:19:05.106Z,35.4541015625
2022-08-30T08:20:05.104Z,35.4736328125
2022-08-30T08:21:05.332Z,34.7900390625
2022-08-30T08:22:20.024Z,34.2421875
2022-08-30T08:23:05.075Z,33.47265625
2022-08-30T08:24:05.132Z,33.76953125
2022-08-30T08:25:05.067Z,33.7744140625
2022-08-30T08:26:05.138Z,33.54296875
2022-08-30T08:27:11.165Z,33.884765625
2022-08-30T08:28:05.160Z,33.85546875
2022-08-30T08:29:05.108Z,33.87109375
2022-08-30T08:30:05.062Z,34.0771484375
2022-08-30T08:31:05.132Z,34.095703125
2022-08-30T08:32:05.078Z,33.919921875
2022-08-30T08:33:05.056Z,34.044921875
2022-08-30T08:34:05.136Z,34.091796875
2022-08-30T08:35:05.191Z,33.6982421875
2022-08-30T08:36:08.817Z,32.9033203125
2022-08-30T08:37:05.317Z,33.9423828125
2022-08-30T08:38:08.107Z,34.0224609375
2022-08-30T08:39:05.074Z,34.015625
2022-08-30T08:40:05.009Z,33.455078125
2022-08-30T08:41:05.084Z,32.81640625
2022-08-30T08:42:05.315Z,32.822265625
2022-08-30T08:43:05.176Z,33.39453125
2022-08-30T08:44:05.110Z,33.59765625
2022-08-30T08:45:10.295Z,33.796875
2022-08-30T08:46:05.134Z,33.8564453125
2022-08-30T08:47:05.359Z,33.65625
2022-08-30T08:48:05.047Z,32.8720703125
2022-08-30T08:49:08.127Z,32.431640625
2022-08-30T08:50:05.180Z,31.794921875
2022-08-30T08:51:05.320Z,31.5615234375
2022-08-30T08:52:05.318Z,31.8779296875
2022-08-30T08:53:05.130Z,31.197265625
2022-08-30T08:54:05.056Z,31.2978515625
2022-08-30T08:55:04.966Z,31.2958984375
2022-08-30T08:56:04.927Z,30.6357421875
2022-08-30T08:57:05.389Z,30.861328125
2022-08-30T08:58:05.150Z,31.162109375
2022-08-30T08:59:05.120Z,31.119140625
2022-08-30T09:00:08.054Z,31.119140625
2022-08-30T09:01:05.239Z,30.9306640625
2022-08-30T09:02:05.323Z,30.62109375
2022-08-30T09:03:05.153Z,30.671875
2022-08-30T09:04:05.078Z,30.0546875
2022-08-30T09:05:05.184Z,30.318359375
2022-08-30T09:06:05.357Z,30.0361328125
2022-08-30T09:07:05.399Z,29.439453125
2022-08-30T09:08:09.165Z,29.17578125
2022-08-30T09:09:04.980Z,29.3447265625
2022-08-30T09:10:05.091Z,29.6328125
2022-08-30T09:11:08.145Z,30.208984375
2022-08-30T09:12:05.323Z,29.7880859375
2022-08-30T09:13:05.170Z,29.0009765625
2022-08-30T09:14:05.195Z,29.6845703125
2022-08-30T09:15:05.067Z,29.1689453125
2022-08-30T09:16:05.190Z,28.974609375
2022-08-30T09:17:05.323Z,28.919921875
2022-08-30T09:18:05.052Z,28.3466796875
2022-08-30T09:19:04.968Z,27.8671875
2022-08-30T09:20:04.955Z,27.4072265625
2022-08-30T09:21:05.397Z,28.490234375
2022-08-30T09:22:10.294Z,28.71875
2022-08-30T09:23:05.135Z,28.998046875
2022-08-30T09:24:05.070Z,29.0859375
2022-08-30T09:25:05.025Z,28.8603515625
2022-08-30T09:26:05.098Z,27.8955078125
2022-08-30T09:27:05.322Z,28.1767578125
2022-08-30T09:28:05.076Z,28.513671875
2022-08-30T09:29:05.055Z,28.1240234375
2022-08-30T09:30:05.107Z,28.1083984375
2022-08-30T09:31:07.723Z,28.228515625
2022-08-30T09:32:24.726Z,28.826171875
2022-08-30T09:33:08.138Z,29.0380859375
2022-08-30T09:34:05.180Z,28.8447265625
2022-08-30T09:35:04.961Z,28.6474609375
2022-08-30T09:36:05.403Z,28.2705078125
2022-08-30T09:37:05.320Z,28.0146484375
2022-08-30T09:38:05.144Z,27.6376953125
2022-08-30T09:39:05.054Z,27.2470703125
2022-08-30T09:40:05.159Z,26.75390625
2022-08-30T09:41:05.071Z,26.2099609375
2022-08-30T09:42:05.398Z,25.978515625
2022-08-30T09:43:05.145Z,25.5400390625
2022-08-30T09:44:08.158Z,25.1689453125
2022-08-30T09:45:05.140Z,25.236328125
2022-08-30T09:46:05.022Z,25.3037109375
2022-08-30T09:47:05.384Z,25.6923828125
2022-08-30T09:48:05.144Z,25.994140625
2022-08-30T09:49:05.065Z,26.0322265625
2022-08-30T09:50:04.979Z,26.1904296875
2022-08-30T09:51:05.388Z,25.701171875
2022-08-30T09:52:05.320Z,25.421875
2022-08-30T09:53:05.185Z,25.099609375
2022-08-30T09:54:17.058Z,24.552734375
2022-08-30T09:55:08.161Z,24.5908203125
2022-08-30T09:56:05.038Z,24.6494140625
2022-08-30T09:57:05.393Z,24.5302734375
2022-08-30T09:58:05.062Z,24.2998046875
2022-08-30T09:59:04.926Z,24.45703125
2022-08-30T10:00:04.959Z,25.09765625
2022-08-30T10:01:05.153Z,24.5673828125
2022-08-30T10:02:05.370Z,24.396484375
2022-08-30T10:03:05.048Z,24.1201171875
2022-08-30T10:04:05.059Z,24.2470703125
2022-08-30T10:05:05.091Z,24.0625
2022-08-30T10:06:07.974Z,24.064453125
2022-08-30T10:07:05.369Z,23.8876953125
2022-08-30T10:08:05.184Z,23.8505859375
2022-08-30T10:09:05.144Z,24
2022-08-30T10:10:05.073Z,23.919921875
2022-08-30T10:11:07.797Z,23.759765625
2022-08-30T10:12:05.357Z,23.1904296875
2022-08-30T10:13:05.085Z,22.6904296875
2022-08-30T10:14:05.160Z,22.357421875
2022-08-30T10:15:05.058Z,21.7431640625
2022-08-30T10:16:05.106Z,21.8251953125
2022-08-30T10:17:11.048Z,21.763671875
2022-08-30T10:18:05.041Z,22.0419921875
2022-08-30T10:19:06.291Z,21.626953125
2022-08-30T10:20:07.527Z,21.3076171875
2022-08-30T10:21:05.322Z,20.7626953125
2022-08-30T10:22:05.322Z,20.529296875
2022-08-30T10:23:05.073Z,20.3564453125
2022-08-30T10:24:05.065Z,20.2373046875
2022-08-30T10:25:05.139Z,20.3125
2022-08-30T10:26:05.141Z,20.2978515625
2022-08-30T10:27:05.485Z,20.8330078125
2022-08-30T10:28:08.007Z,20.7841796875
2022-08-30T10:29:05.182Z,20.7470703125
2022-08-30T10:30:05.103Z,21.234375
2022-08-30T10:31:05.100Z,21.0654296875
2022-08-30T10:32:05.320Z,21.6181640625